Aeroporto :
LOGIN :

Iscrizione | Disclaimer

   EN    FR    IT 

 










Sommario :    VFR   VFR Marginale   IFR   IFR Intensivo   IFR Molto Intensivo
Visibilità : 
Base nubi : 
>= 8 km
>= 3000ft
5 / 8 km
1000 / 3000 ft
1500m / 5 km
500 / 1000 ft
800 / 1500m
200 / 500 ft
< 800m
< 200 ft
Simboli :   Temporali  Nebbia  Neve Forte  Precipitazioni Forti  Vento > 20 kt
SIGMETs :   Varie  Temporali  Ghiacco  Turbolenza  Onda orograficha  Ceneri Vulcaniche






- Altitudine del aeroporto : 26 ft
- Codice IATA : BIA


LFKB - Bastia

ULTIMO METAR :
  • 220700Z AUTO 20004KT CAVOK 09/06 Q1010 NOSIG

METARs OBSOLETI :
  • 220630Z AUTO 20005KT CAVOK 09/06 Q1010 NOSIG
  • 220600Z AUTO 21005KT 170V230 CAVOK 09/06 Q1010 NOSIG
  • 220530Z AUTO 20005KT 9999 FEW100 BKN140 BKN160 10/06 Q1010 NOSIG
  • 220500Z AUTO 22005KT 190V250 9999 FEW084 BKN110 OVC150 10/07 Q1010 NOSIG
  • 220430Z AUTO 21006KT 9999 FEW082 BKN160 11/07 Q1010 NOSIG
  • 220400Z AUTO 22007KT 9999 FEW080 SCT100 BKN180 10/07 Q1010 NOSIG

TAF TAF LFKB
Valido dal 22 a 03 ore il 23 a 03 ore UTC


220200Z 2203/2303 22005KT 9999 FEW030 BKN110 TX16/2212Z TN09/2203Z
BECMG 2208/2210 15010KT
TEMPO 2215/2221 4000 RA BKN030 FEW035CB BKN060 BKN100
PROB40
TEMPO 2221/2303 2000 TSRA BKN010 BKN025 SCT030CB BKN050
ATIS : +33 4 95 59 19 40



MetMap, La meteo Aeronautica in un colpo d'occhio ! - Copyright ORBIFLY Dicembre 2007 - Disclaimer

ORBIFLY MET'MAP TEAM :

Programmazione e sviluppo : Alexandra Zaïnal
Concezione e sviluppo : Baudouin d'Aumeries
Co-Programmazione e sviluppo : Marc-Olivier Méhu
Supporto tecnico e logistico : Manuel Goepfert
Aiuto per la traduzione : Arnaldo La Scala

Contatto : metmap@orbifly.com




FONTI E CREDITI :

   NOAA